Naniwa Maru — JD4115 — position and weather

sailwx.info

Track history (hours):
 
Tides and Currents Weather Stations Pressure Air Temp Water Temp Dewpoint Dewpoint Depression Visibility Wind Speed Wind Dir Waves Ship Positions

Naniwa Maru

Last reported at 2018-Feb-22 11:08 UTC. Time now 2018-Feb-22 15:05 UTC.
Position N 34°37' E 134°31'.

Length 57 m.

Type: Cargo ship. MMSI: 431008716.

Date/timePositionNaut miles runAvg speedWind from/ knotsBaromVisibWave heightAir tempDewpointWater temp
2018-Feb-22 11:08N 34°37' E 134°31'211.3
2018-Feb-22 10:57N 34°37' E 134°34'511.3
2018-Feb-22 10:31N 34°38' E 134°40'510.9
2018-Feb-22 10:01N 34°38' E 134°47'510.1
2018-Feb-22 09:30N 34°37' E 134°53'510.3
2018-Feb-22 09:01N 34°38' E 134°59'4 8.4
2018-Feb-22 08:30N 34°36' E 135°04'611.3
2018-Feb-22 08:00N 34°37' E 135°11'611.3
2018-Feb-22 07:30N 34°38' E 135°17'510.7
2018-Feb-22 07:00N 34°41' E 135°23'0 0.0
2018-Feb-21 22:46N 34°41' E 135°23'1 1.9
2018-Feb-21 22:30N 34°41' E 135°23'3 0.1
2018-Feb-21 01:13N 34°43' E 135°21'0 0.4
2018-Feb-21 01:00N 34°43' E 135°21'4 8.9
2018-Feb-21 00:30N 34°39' E 135°17'510.5
2018-Feb-20 23:59N 34°37' E 135°12'511.2
2018-Feb-20 23:30N 34°35' E 135°05'611.5
2018-Feb-20 23:00N 34°37' E 134°59'611.5
2018-Feb-20 22:30N 34°37' E 134°52'  
Track history (hours):
 
Tides and Currents Weather Stations Pressure Air Temp Water Temp Dewpoint Dewpoint Depression Visibility Wind Speed Wind Dir Waves Ship Positions

Naniwa Maru

Last reported at 2018-Feb-22 11:08 UTC. Time now 2018-Feb-22 15:05 UTC.
Position N 34°37' E 134°31'.

Length 57 m.

Type: Cargo ship. MMSI: 431008716.

Date/timePositionNaut miles runAvg speedWind from/ knotsBaromVisibWave heightAir tempDewpointWater temp
2018-Feb-22 11:08N 34°37' E 134°31'211.3
2018-Feb-22 10:57N 34°37' E 134°34'511.3
2018-Feb-22 10:31N 34°38' E 134°40'510.9
2018-Feb-22 10:01N 34°38' E 134°47'510.1
2018-Feb-22 09:30N 34°37' E 134°53'510.3
2018-Feb-22 09:01N 34°38' E 134°59'4 8.4
2018-Feb-22 08:30N 34°36' E 135°04'611.3
2018-Feb-22 08:00N 34°37' E 135°11'611.3
2018-Feb-22 07:30N 34°38' E 135°17'510.7
2018-Feb-22 07:00N 34°41' E 135°23'0 0.0
2018-Feb-21 22:46N 34°41' E 135°23'1 1.9
2018-Feb-21 22:30N 34°41' E 135°23'3 0.1
2018-Feb-21 01:13N 34°43' E 135°21'0 0.4
2018-Feb-21 01:00N 34°43' E 135°21'4 8.9
2018-Feb-21 00:30N 34°39' E 135°17'510.5
2018-Feb-20 23:59N 34°37' E 135°12'511.2
2018-Feb-20 23:30N 34°35' E 135°05'611.5
2018-Feb-20 23:00N 34°37' E 134°59'611.5
2018-Feb-20 22:30N 34°37' E 134°52'  

Dump ship's entire track history